Time;durP1;ratioP1;P1;durP2;ratioP2;P2;SDS_P1;SDS_P2;PMS_P1;PMS_P2;Temp;Humidity;BMP_temperature;BMP_pressure;BME280_temperature;BME280_humidity;BME280_pressure;Samples;Min_cycle;Max_cycle;Signal;HPM_P1;HPM_P2
2022/02/01 00:00:12;;;;;;;0.65;0.65;;;4.30;99.90;;;;;;5015910;28;20282;-73
2022/02/01 00:02:47;;;;;;;0.82;0.82;;;4.20;99.90;;;;;;5017076;28;20271;-74
2022/02/01 00:05:20;;;;;;;2.45;1.75;;;4.20;99.90;;;;;;5032084;28;20182;-74
2022/02/01 00:18:44;;;;;;;1.67;1.58;;;4.10;99.90;;;;;;5016296;28;20648;-72
2022/02/01 00:37:20;;;;;;;1.50;1.40;;;4.10;99.90;;;;;;5016283;28;20194;-73
2022/02/01 00:39:46;;;;;;;0.52;0.52;;;4.10;99.90;;;;;;5015858;28;20316;-75
2022/02/01 00:42:17;;;;;;;1.23;0.85;;;4.10;99.90;;;;;;5016125;28;20163;-73
2022/02/01 00:44:42;;;;;;;1.40;0.82;;;4.20;99.90;;;;;;5016316;28;20178;-75
2022/02/01 00:47:08;;;;;;;1.43;1.10;;;4.20;99.90;;;;;;5016980;28;20215;-74
2022/02/01 00:49:35;;;;;;;0.77;0.77;;;4.20;99.90;;;;;;5016058;28;20226;-73
2022/02/01 00:52:02;;;;;;;1.85;1.08;;;4.20;99.90;;;;;;5016663;28;20206;-73
2022/02/01 00:54:28;;;;;;;2.97;1.00;;;4.20;99.90;;;;;;5017289;28;20163;-74
2022/02/01 00:56:54;;;;;;;1.03;1.00;;;4.20;99.90;;;;;;5016913;28;20191;-74
2022/02/01 00:59:19;;;;;;;1.63;1.53;;;4.30;99.90;;;;;;5015934;28;20432;-75
2022/02/01 01:01:45;;;;;;;1.00;0.70;;;4.20;99.90;;;;;;5016353;28;20190;-72
2022/02/01 01:04:10;;;;;;;0.83;0.77;;;4.30;99.90;;;;;;5016752;28;20175;-74
2022/02/01 01:06:36;;;;;;;1.47;0.93;;;4.30;99.90;;;;;;5016347;28;20209;-75
2022/02/01 01:09:03;;;;;;;1.20;0.90;;;4.30;99.90;;;;;;5015954;28;20190;-74
2022/02/01 01:11:29;;;;;;;1.25;0.68;;;4.20;99.90;;;;;;5016615;28;20254;-74
2022/02/01 01:43:33;;;;;;;1.63;1.52;;;3.80;99.90;;;;;;5015007;28;20233;-75
2022/02/01 01:44:31;;;;;;;1.02;0.75;;;3.80;99.90;;;;;;5014898;28;20209;-74
2022/02/01 01:55:14;;;;;;;1.10;1.10;;;3.80;99.90;;;;;;5015001;28;20225;-74
2022/02/01 01:57:40;;;;;;;1.15;1.00;;;3.80;99.90;;;;;;5014640;28;20316;-74
2022/02/01 02:00:14;;;;;;;3.15;1.45;;;3.90;99.90;;;;;;5014991;28;20208;-74
2022/02/01 02:02:40;;;;;;;1.38;0.88;;;3.90;99.90;;;;;;5015105;28;20194;-72
2022/02/01 02:05:06;;;;;;;1.33;1.23;;;3.90;99.90;;;;;;5016333;28;20707;-74
2022/02/01 02:07:32;;;;;;;2.83;0.67;;;3.90;99.90;;;;;;5015373;28;20181;-73
2022/02/01 02:09:58;;;;;;;0.80;0.80;;;3.90;99.90;;;;;;5017316;28;20428;-75
2022/02/01 02:15:29;;;;;;;0.70;0.70;;;3.90;99.90;;;;;;5013596;28;20202;-74
2022/02/01 02:17:59;;;;;;;2.00;1.52;;;4.00;99.90;;;;;;5013703;28;20206;-73
2022/02/01 02:20:25;;;;;;;6.22;1.35;;;3.90;99.90;;;;;;5014220;28;20612;-74
2022/02/01 02:22:50;;;;;;;0.83;0.80;;;4.00;99.90;;;;;;5013894;28;20258;-74
2022/02/01 02:25:16;;;;;;;2.17;1.30;;;3.90;99.90;;;;;;5014178;28;20506;-75
2022/02/01 02:27:43;;;;;;;1.37;0.90;;;4.00;99.90;;;;;;5014127;28;20171;-73
2022/02/01 02:30:09;;;;;;;2.35;1.10;;;4.00;99.90;;;;;;5013972;28;20531;-73
2022/02/01 02:32:35;;;;;;;0.95;0.75;;;4.00;99.90;;;;;;5013967;28;20179;-73
2022/02/01 02:35:03;;;;;;;3.87;1.53;;;4.00;99.90;;;;;;5014265;28;20170;-72
2022/02/01 02:37:31;;;;;;;0.60;0.60;;;4.00;99.90;;;;;;5014049;28;20294;-74
2022/02/01 02:40:44;;;;;;;2.03;1.45;;;4.00;99.90;;;;;;5012587;28;20199;-73
2022/02/01 02:45:40;;;;;;;0.82;0.82;;;4.00;99.90;;;;;;5005696;28;20195;-74
2022/02/01 02:48:06;;;;;;;2.37;1.10;;;4.00;99.90;;;;;;5013609;28;20258;-74
2022/02/01 02:50:31;;;;;;;1.53;1.30;;;4.10;99.90;;;;;;5013834;28;20206;-73
2022/02/01 02:52:57;;;;;;;0.90;0.90;;;4.10;99.90;;;;;;5014079;28;20229;-72
2022/02/01 02:55:24;;;;;;;2.20;1.10;;;4.00;99.90;;;;;;5013748;28;20178;-72
2022/02/01 02:57:50;;;;;;;4.15;1.55;;;4.10;99.90;;;;;;5013530;28;20202;-73
2022/02/01 03:00:15;;;;;;;2.40;1.37;;;4.10;99.90;;;;;;5013660;28;20187;-73
2022/02/01 03:02:41;;;;;;;0.80;0.80;;;4.10;99.90;;;;;;5013796;28;20170;-74
2022/02/01 03:05:07;;;;;;;1.23;1.23;;;4.10;99.90;;;;;;5013742;28;20175;-74
2022/02/01 03:07:32;;;;;;;1.47;1.33;;;4.10;99.90;;;;;;5013601;28;20206;-74
2022/02/01 03:09:58;;;;;;;1.70;1.60;;;4.10;99.90;;;;;;5013593;28;20553;-73
2022/02/01 03:12:44;;;;;;;5.50;1.60;;;4.10;99.90;;;;;;5013584;28;20252;-74
2022/02/01 03:15:59;;;;;;;2.33;1.10;;;4.00;99.90;;;;;;5013315;28;20611;-73
2022/02/01 03:20:39;;;;;;;3.65;1.52;;;3.90;99.90;;;;;;5013371;28;20210;-73
2022/02/01 03:23:04;;;;;;;2.50;1.83;;;3.80;99.90;;;;;;5013541;28;20175;-73
2022/02/01 03:25:30;;;;;;;2.47;0.63;;;3.80;99.90;;;;;;5013508;28;20171;-73
2022/02/01 03:27:56;;;;;;;3.60;2.03;;;3.80;99.90;;;;;;5013332;28;20179;-72
2022/02/01 03:30:22;;;;;;;1.93;1.40;;;3.80;99.90;;;;;;5013439;28;20929;-73
2022/02/01 03:32:48;;;;;;;10.73;2.10;;;3.80;99.90;;;;;;5014823;28;20224;-72
2022/02/01 03:35:14;;;;;;;9.55;1.17;;;3.80;99.90;;;;;;5017401;28;20174;-72
2022/02/01 03:37:40;;;;;;;6.70;1.70;;;3.70;99.90;;;;;;5017186;28;20576;-74
2022/02/01 03:40:09;;;;;;;5.70;1.90;;;3.80;99.90;;;;;;5017296;28;20805;-73
2022/02/01 03:42:36;;;;;;;1.70;1.20;;;3.70;99.90;;;;;;5017117;28;20526;-74
2022/02/01 03:45:01;;;;;;;2.00;1.42;;;3.60;99.90;;;;;;5017230;28;20193;-73
2022/02/01 03:47:31;;;;;;;1.23;1.03;;;3.60;99.90;;;;;;5017143;28;20174;-72
2022/02/01 03:49:59;;;;;;;3.10;0.85;;;3.60;99.90;;;;;;5016949;28;20446;-73
2022/02/01 03:52:25;;;;;;;3.50;1.48;;;3.60;99.90;;;;;;5032213;28;20229;-73
2022/02/01 03:54:51;;;;;;;2.22;1.90;;;3.60;99.90;;;;;;5016912;28;20236;-73
2022/02/01 03:57:17;;;;;;;7.82;1.83;;;3.60;99.90;;;;;;5017048;28;20194;-74
2022/02/01 03:59:44;;;;;;;2.92;1.50;;;3.60;99.90;;;;;;5016407;28;20763;-74
2022/02/01 04:02:11;;;;;;;1.60;0.95;;;3.70;99.90;;;;;;5016892;28;20162;-74
2022/02/01 04:04:37;;;;;;;12.48;1.42;;;3.70;99.90;;;;;;5017096;28;20175;-73
2022/02/01 04:07:04;;;;;;;5.75;1.48;;;3.70;99.90;;;;;;5016762;28;20170;-73
2022/02/01 04:09:30;;;;;;;8.88;1.88;;;3.70;99.90;;;;;;5016402;28;20616;-73
2022/02/01 04:11:59;;;;;;;5.07;1.60;;;3.70;99.90;;;;;;5016580;28;20178;-73
2022/02/01 04:14:28;;;;;;;1.27;1.20;;;3.70;99.90;;;;;;5016621;28;20163;-77
2022/02/01 04:16:56;;;;;;;8.68;1.65;;;3.70;99.90;;;;;;5015422;28;20771;-74
2022/02/01 04:19:22;;;;;;;1.27;1.17;;;3.70;99.90;;;;;;5016187;28;20545;-72
2022/02/01 04:22:05;;;;;;;0.77;0.70;;;3.80;99.90;;;;;;5016403;28;20163;-73
2022/02/01 04:24:37;;;;;;;1.17;1.15;;;3.80;99.90;;;;;;5016446;28;20190;-72
2022/02/01 04:27:04;;;;;;;1.70;1.45;;;3.90;99.90;;;;;;5031578;28;20189;-73
2022/02/01 04:29:30;;;;;;;1.05;1.05;;;3.90;99.90;;;;;;5015829;28;20509;-72
2022/02/01 04:31:56;;;;;;;1.75;0.88;;;3.90;99.90;;;;;;5016438;28;20629;-73
2022/02/01 04:34:22;;;;;;;1.80;1.20;;;3.90;99.90;;;;;;5016349;28;20253;-74
2022/02/01 04:36:48;;;;;;;3.20;1.97;;;3.90;99.90;;;;;;5016210;28;20586;-74
2022/02/01 04:39:13;;;;;;;1.20;1.20;;;3.90;99.90;;;;;;5015548;28;20202;-74
2022/02/01 04:41:39;;;;;;;2.53;1.90;;;3.90;99.90;;;;;;5015774;28;20734;-74
2022/02/01 04:44:05;;;;;;;11.90;1.93;;;3.90;99.90;;;;;;5014875;28;20177;-74
2022/02/01 04:46:31;;;;;;;3.57;1.57;;;3.90;99.90;;;;;;5016077;28;20278;-75
2022/02/01 04:49:01;;;;;;;3.63;0.87;;;3.80;99.90;;;;;;5015529;28;20225;-72
2022/02/01 04:51:29;;;;;;;3.60;1.95;;;3.80;99.90;;;;;;5015783;28;20425;-75
2022/02/01 04:53:55;;;;;;;1.02;1.02;;;3.80;99.90;;;;;;5015873;28;20170;-74
2022/02/01 04:56:21;;;;;;;2.50;2.20;;;3.80;99.90;;;;;;5015766;28;20237;-74
2022/02/01 04:58:47;;;;;;;1.03;0.93;;;3.80;99.90;;;;;;5015596;28;20629;-74
2022/02/01 05:01:13;;;;;;;10.60;3.03;;;3.80;99.90;;;;;;5015769;28;20394;-73
2022/02/01 05:03:40;;;;;;;5.43;2.00;;;3.90;99.90;;;;;;5015861;28;20398;-74
2022/02/01 05:06:07;;;;;;;1.70;1.15;;;3.80;99.90;;;;;;5015713;28;20526;-74
2022/02/01 05:08:33;;;;;;;4.55;2.15;;;3.80;99.90;;;;;;5013949;28;20588;-73
2022/02/01 05:11:00;;;;;;;6.13;1.43;;;3.80;99.90;;;;;;5015893;28;20265;-73
2022/02/01 05:16:20;;;;;;;1.13;0.70;;;3.80;99.90;;;;;;4994165;28;20179;-74
2022/02/01 05:18:46;;;;;;;1.63;1.35;;;3.80;99.90;;;;;;4993254;28;20666;-73
2022/02/01 05:21:22;;;;;;;5.18;1.10;;;3.80;99.90;;;;;;4993791;28;20549;-74
2022/02/01 05:23:49;;;;;;;3.60;1.35;;;3.80;99.90;;;;;;4994232;28;20178;-74
2022/02/01 05:26:15;;;;;;;1.90;1.80;;;3.80;99.90;;;;;;4993750;28;20318;-74
2022/02/01 05:28:41;;;;;;;3.93;1.13;;;3.80;99.90;;;;;;4993489;28;20262;-75
2022/02/01 05:31:08;;;;;;;0.80;0.80;;;3.80;99.90;;;;;;4993748;28;20242;-75
2022/02/01 05:33:34;;;;;;;0.88;0.88;;;3.80;99.90;;;;;;4993795;28;20183;-74
2022/02/01 05:36:02;;;;;;;0.85;0.80;;;3.80;99.90;;;;;;4994000;28;20198;-75
2022/02/01 05:38:27;;;;;;;2.67;1.73;;;3.80;99.90;;;;;;4993272;28;20199;-71
2022/02/01 05:40:53;;;;;;;2.97;1.13;;;3.80;99.90;;;;;;4993593;28;20191;-73
2022/02/01 05:43:23;;;;;;;2.73;1.10;;;3.80;99.90;;;;;;4993192;28;20430;-72
2022/02/01 05:45:50;;;;;;;1.58;1.15;;;3.80;99.90;;;;;;4977461;28;20182;-74
2022/02/01 05:48:16;;;;;;;2.75;1.17;;;3.70;99.90;;;;;;4992961;28;20183;-75
2022/02/01 05:50:42;;;;;;;5.13;1.30;;;3.70;99.90;;;;;;4992985;28;20211;-74
2022/02/01 05:53:08;;;;;;;5.40;1.40;;;3.70;99.90;;;;;;4994392;28;20242;-74
2022/02/01 05:55:35;;;;;;;2.65;2.55;;;3.60;99.90;;;;;;5006795;28;20637;-75
2022/02/01 05:58:02;;;;;;;1.92;0.75;;;3.60;99.90;;;;;;5013944;28;20237;-73
2022/02/01 06:00:48;;;;;;;1.42;0.70;;;3.70;99.90;;;;;;5014939;28;20191;-74
2022/02/01 06:03:14;;;;;;;1.42;0.90;;;3.60;99.90;;;;;;5014430;28;20163;-75
2022/02/01 06:05:41;;;;;;;0.60;0.60;;;3.60;99.90;;;;;;5014860;28;20722;-74
2022/02/01 06:08:07;;;;;;;2.25;1.45;;;3.60;99.90;;;;;;5029365;28;20403;-74
2022/02/01 06:10:33;;;;;;;0.75;0.75;;;3.60;99.90;;;;;;5013866;28;20203;-73
2022/02/01 06:12:58;;;;;;;1.33;0.73;;;3.60;99.90;;;;;;5014605;28;20190;-74
2022/02/01 06:15:28;;;;;;;1.53;1.40;;;3.70;99.90;;;;;;5014424;28;20380;-76
2022/02/01 06:17:55;;;;;;;0.60;0.60;;;3.60;99.90;;;;;;5014229;28;20206;-75
2022/02/01 06:20:21;;;;;;;3.40;0.80;;;3.70;99.90;;;;;;5014316;28;20198;-75
2022/02/01 06:22:46;;;;;;;1.95;1.75;;;3.70;99.90;;;;;;5013989;28;20179;-74
2022/02/01 06:25:13;;;;;;;4.17;1.23;;;3.70;99.90;;;;;;5014367;28;20177;-72
2022/02/01 06:27:38;;;;;;;3.60;1.15;;;3.70;99.90;;;;;;5013659;28;20179;-75
2022/02/01 06:30:06;;;;;;;0.80;0.80;;;3.70;99.90;;;;;;5014387;28;20198;-75
2022/02/01 06:32:40;;;;;;;4.10;1.10;;;3.70;99.90;;;;;;5014035;28;20179;-71
2022/02/01 06:35:07;;;;;;;1.95;0.57;;;3.70;99.90;;;;;;5014456;28;20266;-71
2022/02/01 06:37:33;;;;;;;3.47;1.00;;;3.70;99.90;;;;;;5012596;28;20669;-70
2022/02/01 06:39:59;;;;;;;1.53;0.87;;;3.70;99.90;;;;;;5012788;28;20194;-70
2022/02/01 06:42:24;;;;;;;0.50;0.50;;;3.70;99.90;;;;;;5013656;28;20438;-71
2022/02/01 06:44:50;;;;;;;4.73;1.70;;;3.70;99.90;;;;;;5014090;28;20262;-72
2022/02/01 06:47:16;;;;;;;0.77;0.77;;;3.70;99.90;;;;;;5013819;28;20402;-74
2022/02/01 06:49:42;;;;;;;3.93;1.50;;;3.70;99.90;;;;;;5013279;28;20534;-76
2022/02/01 06:52:08;;;;;;;2.20;1.30;;;3.70;99.90;;;;;;5014191;28;20196;-71
2022/02/01 06:54:36;;;;;;;2.67;1.80;;;3.70;99.90;;;;;;5013694;28;20167;-74
2022/02/01 06:57:02;;;;;;;1.98;0.85;;;3.70;99.90;;;;;;5013725;28;20174;-74
2022/02/01 06:59:28;;;;;;;2.13;1.40;;;3.70;99.90;;;;;;5028314;28;20190;-74
2022/02/01 07:01:53;;;;;;;1.43;1.07;;;3.70;99.90;;;;;;5013684;28;20645;-73
2022/02/01 07:04:19;;;;;;;1.70;1.17;;;3.70;99.90;;;;;;5014206;28;20170;-73
2022/02/01 07:06:45;;;;;;;1.80;0.90;;;3.70;99.90;;;;;;5012313;28;20257;-72
2022/02/01 07:09:10;;;;;;;0.70;0.50;;;3.60;99.90;;;;;;5011873;28;20198;-72
2022/02/01 07:11:37;;;;;;;2.60;0.70;;;3.60;99.90;;;;;;5013371;28;20645;-72
2022/02/01 07:14:03;;;;;;;3.78;1.95;;;3.60;99.90;;;;;;5013968;28;20175;-73
2022/02/01 07:16:28;;;;;;;0.60;0.60;;;3.70;99.90;;;;;;5014138;28;20178;-71
2022/02/01 07:18:54;;;;;;;1.63;1.53;;;3.70;99.90;;;;;;5012320;28;20202;-71
2022/02/01 07:21:21;;;;;;;0.90;0.60;;;3.60;99.90;;;;;;5013681;28;20254;-73
2022/02/01 07:23:46;;;;;;;3.45;2.20;;;3.70;99.90;;;;;;5013903;28;20201;-73
2022/02/01 07:26:12;;;;;;;11.27;1.77;;;3.70;99.90;;;;;;5014407;28;20623;-72
2022/02/01 07:28:38;;;;;;;0.97;0.80;;;3.60;99.90;;;;;;5011407;28;20266;-71
2022/02/01 07:31:04;;;;;;;9.40;1.50;;;3.60;99.90;;;;;;5011689;28;20206;-74
2022/02/01 07:33:30;;;;;;;4.53;1.80;;;3.60;99.90;;;;;;5013539;28;20178;-74
2022/02/01 07:35:58;;;;;;;1.77;1.00;;;3.70;99.90;;;;;;5013553;28;20575;-72
2022/02/01 07:38:25;;;;;;;4.97;1.23;;;3.70;99.90;;;;;;5013613;28;20191;-74
2022/02/01 07:40:53;;;;;;;1.35;1.25;;;3.70;99.90;;;;;;5013158;28;20182;-75
2022/02/01 07:43:20;;;;;;;2.50;1.50;;;3.70;99.90;;;;;;5013446;28;20224;-74
2022/02/01 07:45:47;;;;;;;2.35;0.77;;;3.70;99.90;;;;;;5013554;28;20175;-73
2022/02/01 07:48:14;;;;;;;3.85;1.67;;;3.80;99.90;;;;;;5011291;28;20668;-72
2022/02/01 07:50:40;;;;;;;2.92;1.40;;;3.80;99.90;;;;;;5008950;28;20214;-73
2022/02/01 07:53:10;;;;;;;3.00;0.73;;;3.90;99.90;;;;;;4994000;28;20254;-73
2022/02/01 07:55:36;;;;;;;1.23;0.88;;;3.90;99.90;;;;;;5005779;28;20249;-74
2022/02/01 07:58:02;;;;;;;2.38;1.10;;;4.00;99.90;;;;;;5011572;28;20218;-73
2022/02/01 08:00:28;;;;;;;2.45;0.85;;;4.10;99.90;;;;;;5013103;28;20609;-75
2022/02/01 08:02:57;;;;;;;3.45;1.17;;;4.10;99.90;;;;;;5013262;28;20552;-76
2022/02/01 08:05:26;;;;;;;5.63;0.98;;;4.10;99.90;;;;;;5013476;28;20513;-74
2022/02/01 08:07:54;;;;;;;2.55;1.10;;;4.20;99.90;;;;;;5012870;28;20614;-72
2022/02/01 08:10:21;;;;;;;1.02;0.93;;;4.20;99.90;;;;;;5013152;28;20203;-74
2022/02/01 08:16:28;;;;;;;5.60;1.10;;;4.30;99.90;;;;;;5011167;28;20176;-75
2022/02/01 08:21:29;;;;;;;2.13;1.13;;;4.40;99.90;;;;;;5014953;28;20191;-75
2022/02/01 08:23:56;;;;;;;1.08;1.08;;;4.40;99.90;;;;;;5013917;28;20179;-73
2022/02/01 08:26:26;;;;;;;2.40;1.13;;;4.50;99.90;;;;;;5013654;28;20186;-72
2022/02/01 08:28:52;;;;;;;1.38;0.75;;;4.60;99.90;;;;;;5013803;28;20640;-71
2022/02/01 08:31:18;;;;;;;3.80;1.30;;;4.70;99.90;;;;;;5008745;28;20183;-70
2022/02/01 08:33:43;;;;;;;3.35;1.52;;;4.90;99.90;;;;;;4995112;28;20282;-69
2022/02/01 08:36:09;;;;;;;0.70;0.70;;;5.00;99.90;;;;;;5014456;28;20819;-71
2022/02/01 08:38:35;;;;;;;1.40;1.30;;;5.20;99.90;;;;;;5013786;28;20234;-71
2022/02/01 08:41:02;;;;;;;4.23;1.30;;;5.20;99.90;;;;;;5014251;28;20290;-71
2022/02/01 08:43:30;;;;;;;2.63;1.58;;;5.30;99.90;;;;;;5014223;28;20171;-71
2022/02/01 08:45:55;;;;;;;1.10;0.73;;;5.30;99.90;;;;;;5014230;28;20277;-70
2022/02/01 08:48:21;;;;;;;4.53;1.23;;;5.30;99.90;;;;;;5013214;28;20206;-70
2022/02/01 08:50:48;;;;;;;2.83;1.20;;;5.30;99.90;;;;;;4997755;28;20214;-70
2022/02/01 08:53:18;;;;;;;11.70;2.90;;;5.30;99.90;;;;;;5000425;28;20187;-72
2022/02/01 08:58:24;;;;;;;5.55;3.65;;;5.30;99.90;;;;;;5015809;28;20680;-71
2022/02/01 09:00:50;;;;;;;1.95;1.48;;;5.30;99.90;;;;;;5014986;28;20569;-74
2022/02/01 09:03:16;;;;;;;3.67;2.13;;;5.30;99.90;;;;;;5015819;28;20171;-74
2022/02/01 09:05:48;;;;;;;1.97;1.07;;;5.30;99.90;;;;;;5015723;28;20177;-74
2022/02/01 09:08:15;;;;;;;1.40;1.17;;;5.30;99.90;;;;;;5015274;28;20450;-72
2022/02/01 09:10:41;;;;;;;5.40;1.17;;;5.30;99.90;;;;;;5015563;28;20242;-72
2022/02/01 09:13:07;;;;;;;8.35;1.30;;;5.30;99.90;;;;;;4997699;28;20184;-72
2022/02/01 09:15:35;;;;;;;2.22;2.00;;;5.40;99.90;;;;;;5015948;28;20170;-74
2022/02/01 09:18:01;;;;;;;6.72;1.50;;;5.40;99.90;;;;;;5014574;28;20209;-72
2022/02/01 09:20:28;;;;;;;2.78;1.02;;;5.50;99.90;;;;;;5015091;28;20197;-73
2022/02/01 09:22:55;;;;;;;1.02;1.02;;;5.60;99.90;;;;;;5013561;28;20538;-71
2022/02/01 09:25:21;;;;;;;1.52;1.52;;;5.70;99.90;;;;;;5016065;28;20204;-72
2022/02/01 09:27:48;;;;;;;1.75;1.65;;;5.80;99.90;;;;;;5016342;28;20188;-74
2022/02/01 09:30:17;;;;;;;10.52;2.47;;;5.80;99.90;;;;;;5016348;28;20245;-73
2022/02/01 09:32:43;;;;;;;4.85;2.05;;;5.80;99.90;;;;;;5015963;28;20181;-71
2022/02/01 09:35:09;;;;;;;16.55;2.00;;;5.90;99.90;;;;;;5015396;28;20172;-71
2022/02/01 09:37:35;;;;;;;1.73;1.13;;;5.80;99.90;;;;;;5015056;28;20654;-71
2022/02/01 09:40:00;;;;;;;1.13;1.03;;;5.80;99.90;;;;;;5015116;28;20202;-71
2022/02/01 09:42:27;;;;;;;4.60;1.97;;;5.80;99.90;;;;;;5015429;28;20260;-71
2022/02/01 09:44:55;;;;;;;1.65;0.68;;;5.80;99.90;;;;;;5015263;28;20182;-72
2022/02/01 09:47:35;;;;;;;1.40;1.33;;;5.70;99.90;;;;;;5014933;28;20273;-72
2022/02/01 09:50:04;;;;;;;13.63;2.03;;;5.70;99.90;;;;;;5014484;28;20232;-72
2022/02/01 09:52:30;;;;;;;7.75;5.30;;;5.80;99.90;;;;;;5015016;28;20169;-72
2022/02/01 09:54:57;;;;;;;1.05;1.05;;;5.90;99.90;;;;;;5008466;28;20293;-72
2022/02/01 09:57:23;;;;;;;2.17;1.23;;;6.10;99.90;;;;;;5009802;28;20206;-71
2022/02/01 09:59:57;;;;;;;0.63;0.63;;;6.20;99.90;;;;;;5013179;28;20202;-72
2022/02/01 10:02:38;;;;;;;3.70;0.90;;;6.20;99.90;;;;;;5014797;28;20174;-72
2022/02/01 10:05:06;;;;;;;3.15;1.45;;;6.20;99.90;;;;;;5014614;28;20169;-71
2022/02/01 10:07:32;;;;;;;2.20;0.57;;;6.30;99.90;;;;;;5014784;28;20167;-72
2022/02/01 10:09:59;;;;;;;1.27;1.20;;;6.40;99.90;;;;;;5014327;28;20263;-72
2022/02/01 10:12:30;;;;;;;3.40;1.00;;;6.50;99.90;;;;;;5014640;28;20376;-71
2022/02/01 10:15:06;;;;;;;0.90;0.90;;;6.70;99.90;;;;;;5014917;28;20177;-72
2022/02/01 10:17:45;;;;;;;0.95;0.95;;;6.80;99.90;;;;;;5013655;28;20273;-72
2022/02/01 10:20:11;;;;;;;1.52;0.80;;;6.90;99.90;;;;;;5013961;28;20209;-71
2022/02/01 10:22:38;;;;;;;1.77;1.00;;;7.00;99.90;;;;;;5014311;28;20170;-71
2022/02/01 10:25:18;;;;;;;1.70;1.25;;;7.10;99.90;;;;;;5009597;28;20168;-72
2022/02/01 10:27:53;;;;;;;2.15;1.23;;;7.20;99.90;;;;;;4994651;28;20179;-71
2022/02/01 10:30:21;;;;;;;1.00;1.00;;;7.50;99.90;;;;;;4994753;28;20194;-72
2022/02/01 10:38:02;;;;;;;1.17;0.93;;;8.90;99.90;;;;;;5013879;28;20207;-75
2022/02/01 10:40:48;;;;;;;0.50;0.50;;;9.20;99.90;;;;;;5014216;28;20401;-73
2022/02/01 10:43:21;;;;;;;8.13;1.63;;;9.30;99.90;;;;;;5013634;28;20168;-73
2022/02/01 10:45:48;;;;;;;1.40;0.95;;;9.00;99.90;;;;;;5014051;28;20579;-73
2022/02/01 10:48:16;;;;;;;3.10;0.90;;;8.60;99.90;;;;;;5017843;28;20167;-72
2022/02/01 10:50:50;;;;;;;0.73;0.73;;;8.40;99.90;;;;;;5016539;28;20218;-75
2022/02/01 10:53:21;;;;;;;8.45;0.82;;;8.10;99.90;;;;;;5013988;28;20278;-73
2022/02/01 10:55:48;;;;;;;8.23;1.10;;;7.80;99.90;;;;;;5013691;28;20178;-74
2022/02/01 10:58:15;;;;;;;1.35;0.73;;;7.60;99.90;;;;;;5013581;28;20281;-73
2022/02/01 11:00:47;;;;;;;1.88;0.90;;;7.50;99.90;;;;;;5013032;28;20286;-71
2022/02/01 11:03:15;;;;;;;3.33;0.80;;;7.20;99.90;;;;;;5013070;28;20529;-71
2022/02/01 11:05:46;;;;;;;1.20;1.20;;;7.00;99.90;;;;;;5013805;28;20173;-73
2022/02/01 11:08:18;;;;;;;1.10;1.10;;;6.90;99.90;;;;;;5013172;28;20179;-74
2022/02/01 11:10:51;;;;;;;1.20;1.15;;;6.90;99.90;;;;;;5013608;28;20206;-73
2022/02/01 11:13:17;;;;;;;1.95;1.83;;;6.90;99.90;;;;;;5013871;28;20233;-73
2022/02/01 11:15:56;;;;;;;1.33;1.03;;;6.90;99.90;;;;;;5013930;28;20175;-73
2022/02/01 11:18:26;;;;;;;2.28;0.85;;;7.00;99.90;;;;;;5012868;28;20214;-72
2022/02/01 11:21:12;;;;;;;0.60;0.60;;;7.00;99.90;;;;;;5013811;28;20163;-73
2022/02/01 11:23:54;;;;;;;1.40;0.95;;;6.90;99.90;;;;;;5013663;28;20198;-73
2022/02/01 11:26:30;;;;;;;1.67;0.75;;;6.90;99.90;;;;;;5013807;28;20167;-72
2022/02/01 11:31:29;;;;;;;11.48;1.52;;;6.80;99.90;;;;;;5013705;28;20659;-73
2022/02/01 11:33:55;;;;;;;3.47;1.05;;;6.70;99.90;;;;;;5013524;28;20192;-72
2022/02/01 11:36:22;;;;;;;9.75;1.42;;;6.60;99.90;;;;;;5013822;28;20621;-72
2022/02/01 11:38:55;;;;;;;1.83;1.63;;;6.60;99.90;;;;;;5012958;28;20209;-72
2022/02/01 11:41:41;;;;;;;2.85;1.70;;;6.70;99.90;;;;;;5013608;28;20170;-73
2022/02/01 11:44:29;;;;;;;0.70;0.70;;;6.80;99.90;;;;;;5013684;28;20604;-74
2022/02/01 11:47:05;;;;;;;1.25;0.60;;;6.90;99.90;;;;;;5013379;28;20166;-73
2022/02/01 11:49:31;;;;;;;1.75;0.90;;;7.00;99.90;;;;;;5012984;28;20549;-73
2022/02/01 11:52:12;;;;;;;1.13;0.95;;;7.00;99.90;;;;;;5013300;28;20526;-73
2022/02/01 11:54:40;;;;;;;1.20;1.10;;;7.00;99.90;;;;;;5017541;28;20172;-72
2022/02/01 11:57:26;;;;;;;3.05;2.00;;;7.00;99.90;;;;;;5015900;28;20541;-72
2022/02/01 11:59:56;;;;;;;6.18;1.33;;;6.90;99.90;;;;;;5016516;28;20193;-75
2022/02/01 12:02:25;;;;;;;2.60;1.98;;;6.80;99.90;;;;;;5016421;28;20552;-74
2022/02/01 12:04:51;;;;;;;5.05;2.40;;;6.60;99.90;;;;;;5016734;28;20170;-76
2022/02/01 12:07:23;;;;;;;10.80;4.90;;;6.50;99.90;;;;;;5017499;28;20232;-76
2022/02/01 12:09:49;;;;;;;2.00;1.42;;;6.30;99.90;;;;;;5016021;28;20423;-78
2022/02/01 12:12:21;;;;;;;2.58;2.13;;;6.30;99.90;;;;;;5016133;28;20507;-78
2022/02/01 12:14:55;;;;;;;1.77;1.20;;;6.30;99.90;;;;;;5016848;28;20240;-79
2022/02/01 12:17:22;;;;;;;0.95;0.60;;;6.10;99.90;;;;;;5016311;28;20291;-77
2022/02/01 12:19:57;;;;;;;2.80;1.60;;;6.10;99.90;;;;;;5016448;28;20698;-76
2022/02/01 12:22:30;;;;;;;1.08;1.00;;;6.10;99.90;;;;;;5010324;28;20204;-78
2022/02/01 12:25:07;;;;;;;1.02;0.95;;;6.10;99.90;;;;;;5017109;28;20170;-80
2022/02/01 12:27:38;;;;;;;1.38;1.25;;;6.00;99.90;;;;;;5015144;28;20182;-78
2022/02/01 12:30:06;;;;;;;1.58;0.60;;;6.10;99.90;;;;;;5016662;28;20197;-76
2022/02/01 12:32:33;;;;;;;1.70;1.00;;;5.90;99.90;;;;;;5016637;28;20180;-78
2022/02/01 12:34:59;;;;;;;2.50;0.82;;;5.80;99.90;;;;;;5016902;28;20256;-77
2022/02/01 12:37:27;;;;;;;0.50;0.50;;;5.80;99.90;;;;;;5016185;28;20830;-77
2022/02/01 12:40:07;;;;;;;2.15;1.10;;;5.70;99.90;;;;;;5016521;28;20520;-77
2022/02/01 12:42:42;;;;;;;3.80;1.00;;;5.70;99.90;;;;;;5018878;28;20293;-79
2022/02/01 12:48:03;;;;;;;4.80;0.90;;;5.60;99.90;;;;;;5021443;28;20232;-77
2022/02/01 12:50:29;;;;;;;0.75;0.75;;;5.60;99.90;;;;;;5020353;28;20331;-77
2022/02/01 12:53:00;;;;;;;1.43;1.03;;;5.60;99.90;;;;;;5017137;28;20176;-75
2022/02/01 12:55:26;;;;;;;1.35;1.02;;;5.60;99.90;;;;;;5016133;28;20181;-76
2022/02/01 12:57:53;;;;;;;1.90;1.13;;;5.60;99.90;;;;;;5015382;28;20219;-81
2022/02/01 13:00:22;;;;;;;4.72;1.23;;;5.70;99.90;;;;;;5016452;28;20187;-80
2022/02/01 13:02:53;;;;;;;2.50;0.73;;;5.70;99.90;;;;;;5015508;28;20221;-76
2022/02/01 13:05:20;;;;;;;1.02;1.02;;;5.70;99.90;;;;;;5014994;28;20173;-74
2022/02/01 13:21:04;;;;;;;1.65;1.55;;;5.60;99.90;;;;;;5015241;28;20267;-74
2022/02/01 13:23:40;;;;;;;0.73;0.60;;;5.60;99.90;;;;;;5014708;28;20188;-74
2022/02/01 13:26:16;;;;;;;0.82;0.82;;;5.60;99.90;;;;;;5015375;28;20172;-72
2022/02/01 13:28:44;;;;;;;0.60;0.60;;;5.60;99.90;;;;;;5008579;28;20163;-73
2022/02/01 13:31:15;;;;;;;1.20;0.98;;;5.70;99.90;;;;;;5015439;28;20536;-73
2022/02/01 13:33:49;;;;;;;0.85;0.70;;;5.70;99.90;;;;;;5012377;28;20515;-72
2022/02/01 13:36:15;;;;;;;1.15;0.90;;;5.70;99.90;;;;;;5014669;28;20207;-72
2022/02/01 13:38:55;;;;;;;3.33;1.30;;;5.80;99.90;;;;;;5013768;28;20201;-72
2022/02/01 13:41:23;;;;;;;1.88;1.23;;;5.80;99.90;;;;;;5014737;28;20202;-72
2022/02/01 13:43:51;;;;;;;0.70;0.70;;;5.80;99.90;;;;;;5000714;28;20178;-73
2022/02/01 13:46:26;;;;;;;1.90;0.88;;;5.80;99.90;;;;;;5005771;28;20169;-73
2022/02/01 13:49:09;;;;;;;0.40;0.40;;;5.70;99.90;;;;;;5014317;28;20194;-73
2022/02/01 13:51:50;;;;;;;1.05;0.90;;;5.70;99.90;;;;;;5009772;28;20183;-72
2022/02/01 13:54:16;;;;;;;0.55;0.55;;;5.60;99.90;;;;;;5012953;28;20174;-72
2022/02/01 13:56:46;;;;;;;0.50;0.45;;;5.50;99.90;;;;;;5014491;28;20239;-73
2022/02/01 13:59:17;;;;;;;0.80;0.80;;;5.50;99.90;;;;;;5014049;28;20204;-72
2022/02/01 14:01:45;;;;;;;1.40;0.88;;;5.50;99.90;;;;;;5014177;28;20175;-71
2022/02/01 14:04:19;;;;;;;2.10;0.95;;;5.50;99.90;;;;;;5014433;28;20522;-72
2022/02/01 14:09:37;;;;;;;0.70;0.70;;;5.50;99.90;;;;;;4994627;28;20195;-74
2022/02/01 14:12:38;;;;;;;0.82;0.82;;;5.50;99.90;;;;;;5009217;28;20178;-72
2022/02/01 14:25:49;;;;;;;1.02;0.75;;;5.20;99.90;;;;;;5014769;28;20248;-72
2022/02/01 14:28:44;;;;;;;2.75;0.77;;;5.00;99.90;;;;;;5013505;28;20531;-72
2022/02/01 14:33:59;;;;;;;0.70;0.70;;;5.10;99.90;;;;;;5014012;28;20555;-74
2022/02/01 14:36:31;;;;;;;1.40;1.00;;;5.00;99.90;;;;;;5014494;28;20178;-72
2022/02/01 14:39:29;;;;;;;0.50;0.50;;;4.90;99.90;;;;;;5013844;28;20202;-74
2022/02/01 14:44:46;;;;;;;1.58;1.30;;;4.90;99.90;;;;;;5012686;28;20210;-73
2022/02/01 14:47:20;;;;;;;1.45;1.35;;;4.90;99.90;;;;;;5013660;28;20507;-73
2022/02/01 14:49:50;;;;;;;1.23;1.10;;;4.90;99.90;;;;;;5012519;28;20195;-72
2022/02/01 14:52:17;;;;;;;2.47;0.82;;;4.80;99.90;;;;;;5014102;28;20185;-71
2022/02/01 14:54:49;;;;;;;4.93;2.33;;;4.80;99.90;;;;;;4999799;28;20709;-72
2022/02/01 15:13:36;;;;;;;1.77;1.67;;;4.30;99.90;;;;;;5014816;28;20513;-75
2022/02/01 15:16:03;;;;;;;1.33;1.23;;;4.20;99.90;;;;;;5014147;28;20171;-74
2022/02/01 15:18:29;;;;;;;2.05;0.95;;;4.10;99.90;;;;;;5013369;28;20212;-74
2022/02/01 15:20:54;;;;;;;1.70;0.67;;;4.00;99.90;;;;;;4998182;28;20176;-73
2022/02/01 15:23:21;;;;;;;1.00;1.00;;;4.00;99.90;;;;;;4994380;28;20534;-76
2022/02/01 15:25:47;;;;;;;3.17;1.30;;;3.90;99.90;;;;;;5011985;28;20679;-72
2022/02/01 15:28:14;;;;;;;1.52;1.00;;;3.90;99.90;;;;;;5013399;28;20704;-74